• Join FlightAware (Why Join?)
  • Login
  • US Flag 
07:29AM EDT


 

Airport Tracker/Info


-or-


 

Live Flight TrackerFlight Track Log ✈ SWA143 ✈ 24-Jul-2013 ✈ KPHX - KONT

Flight Track Log - Related Links

Times and Time Zones

All times are in EDT time to prevent confusion due to time zone crossing. See the SWA143 flight status page for this flight to view local times or setup timezone preferences in your user account.

Time Position Orientation Groundspeed Altitude Reporting Facility
EDT Latitude Longitude Course Direction KTS MPH feet Rate Location/Type
05:21PM 33.4333 -112.0333 248° West 201 231 1,700  Level Phoenix TRACON
05:22PM 33.4167 -112.0833 248° West 193 222 3,000 1,800 Climbing Phoenix TRACON
05:23PM 33.4031 -112.1275 250° West 221 254 4,700 2,100 Climbing Albuquerque Center
05:24PM 33.3769 -112.2092 249° West 259 298 7,200 2,580 Climbing Albuquerque Center
05:25PM 33.3856 -112.3261 275° West 293 337 10,100 2,580 Climbing Albuquerque Center
05:26PM 33.4019 -112.4294 281° West 313 360 12,600 2,340 Climbing Albuquerque Center
05:27PM 33.4158 -112.5347 279° West 319 367 15,000 2,100 Climbing Albuquerque Center
05:28PM 33.4294 -112.6347 279° West 320 368 17,000 1,920 Climbing Albuquerque Center
05:29PM 33.4422 -112.7422 278° West 325 374 19,000 1,800 Climbing Albuquerque Center
05:30PM 33.4622 -112.8756 280° West 336 387 20,800 1,620 Climbing Albuquerque Center
05:31PM 33.4850 -112.9906 283° West 351 404 22,400 1,500 Climbing Albuquerque Center
05:32PM 33.5081 -113.1081 283° West 360 414 23,900 1,500 Climbing Albuquerque Center
05:33PM 33.5300 -113.2286 282° West 367 422 25,500 1,500 Climbing Albuquerque Center
05:34PM 33.5533 -113.3483 283° West 370 426 27,000 1,140 Climbing Albuquerque Center
05:35PM 33.5758 -113.4681 283° West 370 426 27,900 480 Climbing Albuquerque Center
05:36PM 33.6000 -113.5936 283° West 382 440 28,000  Climbing Albuquerque Center
05:37PM 33.6256 -113.7317 283° West 390 449 28,000  Level Albuquerque Center
05:38PM 33.6492 -113.8608 282° West 394 453 28,000  Level Albuquerque Center
05:39PM 33.6731 -113.9897 283° West 396 456 28,000  Level Albuquerque Center
05:40PM 33.7014 -114.1447 282° West 397 457 28,000  Level Albuquerque Center
05:41PM 33.7222 -114.2581 282° West 390 449 28,000  Level Albuquerque Center
05:42PM 33.7442 -114.3839 282° West 387 445 28,000  Level Albuquerque Center
05:43PM 33.7717 -114.5331 283° West 383 441 28,000  Level Albuquerque Center
05:45PM 33.7831 -114.6917 275° West 382 440 28,000  Level Los Angeles Center
05:46PM 33.7906 -114.8169 274° West 379 436 28,000  Level Los Angeles Center
05:47PM 33.7967 -114.9442 273° West 382 440 28,000  Level Los Angeles Center
05:48PM 33.8039 -115.0708 274° West 381 438 28,000  Level Los Angeles Center
05:49PM 33.8125 -115.2222 274° West 380 437 28,000  Level Los Angeles Center
05:50PM 33.8181 -115.3475 273° West 377 434 28,000  Level Los Angeles Center
05:51PM 33.8256 -115.4739 274° West 380 437 28,000  Level Los Angeles Center
05:52PM 33.8319 -115.6006 274° West 380 437 28,000 -420 Level Los Angeles Center
05:53PM 33.8372 -115.7281 273° West 383 441 27,200 -1,140 Descending Los Angeles Center
05:54PM 33.8444 -115.8525 274° West 376 433 25,700 -1,560 Descending Los Angeles Center
05:55PM 33.8514 -116.0019 273° West 376 433 24,000 -840 Descending Los Angeles Center
05:56PM 33.8575 -116.1297 273° West 384 442 24,000 -300 Level Los Angeles Center
05:57PM 33.8631 -116.2575 273° West 384 442 23,400 -1,260 Descending Los Angeles Center
05:58PM 33.8689 -116.3869 273° West 388 447 21,400 -1,980 Descending Los Angeles Center
05:59PM 33.8739 -116.5125 273° West 380 437 19,400 -2,040 Descending Los Angeles Center
06:00PM 33.8803 -116.6350 274° West 371 427 17,300 -2,280 Descending Los Angeles Center
06:01PM 33.8864 -116.7786 273° West 361 415 14,700 -1,680 Descending Los Angeles Center
06:02PM 33.9014 -116.8864 280° West 319 367 13,800 -1,380 Descending Los Angeles Center
06:03PM 33.9319 -116.9772 292° West 295 339 11,900 -1,920 Descending Los Angeles Center
06:04PM 33.9617 -117.0686 291° West 294 338 9,900 -2,100 Descending Los Angeles Center
06:05PM 33.9956 -117.1742 291° West 294 338 7,600 -2,040 Descending Los Angeles Center
06:06PM 34.0258 -117.2689 291° West 291 335 5,700 -1,560 Descending Los Angeles Center
06:07PM 34.0517 -117.3483 291° West 278 320 4,400 -1,080 Descending Los Angeles Center
06:08PM 34.0572 -117.4261 275° West 254 292 3,500 -1,020 Descending Los Angeles Center
06:09PM 34.0569 -117.5019 270° West 209 241 2,300 -900 Descending Los Angeles Center
06:10PM 34.0572 -117.5478 270° West 168 193 1,700 -540 Descending Los Angeles Center
06:11PM 34.0589 -117.5894 273° West 156 180 1,300 -420 Descending Los Angeles Center
06:13PM 34.0500 -117.6000 275° West  Level FlightAware Approximate
06:20PM 34.0560 -117.6012 275° West  Level Estimated